BZO weather

Bolzano Airport
Bolzano, Trentino-Alto Adige, Italy

Public forecast

Using degrees Celsius for public forecast. Weather courtesy of forecast.io.

METAR (pilot weather report)

Retrieved 2019/04/21 15:50 UTC (29 minutes ago):

LIPB 211550Z 20007KT CAVOK 25/02 Q1015 RMK MON LIB

TAF (pilot weather forecast)

Retrieved 2019/04/21 12:21 UTC (4 hours ago):

TAF LIPB 211100Z 2112/2212 VRB05KT CAVOK